Klamath Falls, OR

3:42 AM PDT on October 01, 2016 (GMT -0700)
Klamath Falls International | | Change Station

Elev 4091 ft 42.15 °N, 121.72 °W | Updated 49 minutes ago

Clear
Clear
29 °F
Feels Like 29 °F
N
0
Wind Variable Wind from North

Today
High -- | Low -- °F
--% Chance of Precip.
Yesterday
High -- | Low -- °F
Precip. -- in
Pressure 30.04 in
Visibility 10.0 miles
Clouds Clear
Dew Point 25 °F
Humidity 85%
Rainfall 0.00 in
Snow Depth Not available.
7:04 AM 6:47 PM
New Moon, 0% visible
METAR KLMT 010953Z AUTO 00000KT 10SM CLR M02/M04 A3007 RMK AO2 SLP171 T10171039
Pressure 30.04 in
Visibility 10.0 miles
Clouds Clear
Dew Point 25 °F
Humidity 85%
Rainfall 0.00 in
Snow Depth Not available.
7:04 AM 6:47 PM
New Moon, 0% visible
METAR KLMT 010953Z AUTO 00000KT 10SM CLR M02/M04 A3007 RMK AO2 SLP171 T10171039

10-Day Weather Forecast

Almanac

Astronomy

Oct. 01, 2016 Rise Set
Actual Time
Civil Twilight
Nautical Twilight
Astronomical Twilight
Moon
Length of Visible Light
Length of Day
Tomorrow will be .
, % of the Moon is Illuminated

Today's Extremes

State Highs State Lows

Community

WunderPhotos

Upload Photos

1,942,908 photos uploaded!

WunderBlog® & News

Nearby

Air Quality

  Air Quality AQ Index Pollutant
Not available.

Snow Depth

Station Depth Elevation

Earthquake Activity

City Distance Mag. Time & Date
Minimum magnitude displayed is 2.5.

Coastal Water Temperatures

Place Temperature

Stations

Nearby Weather Stations

Station Location Temp. Windchill Dew Point Humidity Wind Precip. Elev Updated Type
                   

Watches & Warnings

There are currently no watches in effect.